Share

Bandara Internasional Osaka, Jepang

IOSAKATO2 Elev 7 ft | 34.76 °N, 135.45 °E | Change Station

Current weather conditions updated 1 second ago

Partly Cloudy
Mendung Sebagian
72.9 °F
Feels Like 77 °F
N
3.3
Angin Variable Angin from Dari Barat ke Baratlaut
Gusts 3.6 mph
Matahari Terbit 5:24 AM
Matahari Tenggelam 6:31 PM
Moon Waning Gibbous

Today is forecast to be Warmer than yesterday. Hujan. tonight.

Tekanan 29.95 Inch
Jarak Pandang 5.6 Mil
Awan Few 4000 ft
Ideks Panas 77 °F
Titik Embun 46 °F
Kelembaban 39%
Rainfall 0.00 Inch
Snow Depth Not available.
UV 3.0 out of 16
Pollen Not available.
Air Quality Not available.
Flu Activity Not available.
METAR RJOO 170300Z 20006KT 150V240 9000 FEW040 22/07 Q1014 RMK 1CU040 A2994

More Conditions Fewer Conditions

Tekanan 29.95 Inch
Jarak Pandang 5.6 Mil
Awan Few 4000 ft
Ideks Panas 77 °F
Titik Embun 46 °F
Kelembaban 39%
Rainfall 0.00 Inch
Snow Depth Not available.
UV 3.0 out of 16
Pollen Not available.
Air Quality Not available.
Flu Activity Not available.
METAR RJOO 170300Z 20006KT 150V240 9000 FEW040 22/07 Q1014 RMK 1CU040 A2994

More Conditions Fewer Conditions

10-Day Forecast

Almanac

Astronomi

Apr. 17, 2014 Rise Set
Actual Time 5:24 AM JST 6:31 PM JST
Civil Twilight 4:58 AM JST 6:57 PM JST
Nautical Twilight 4:27 AM JST 7:28 PM JST
Astronomical Twilight 3:55 AM JST 8:00 PM JST
Moon 8:34 PM JST 6:31 AM JST
Length Of Visible Light 13h 59m
Lama Satu Hari
13h 06m
Tomorrow will be 2m 3s longer.
Waning Gibbous, 96% of the Moon is Illuminated
Apr 16
Waning Gibbous
Apr 22
Kuartil Terakhir
Apr 29
New
May 6
Triwulan Pertama
May 14
Bulan Purnama

Yesterday's Extremes

Country Highs Country Lows

Community

  • symphony in blue....
    symphony in blue....
  • Dawn Surprise
    Dawn Surprise
  • Yucca delight
    Yucca delight
  • Sunset inside of the Ocean
    Sunset inside of the Ocean
  • Lunar eclipse 15 April 2014
    Lunar eclipse 15 April 2014

WunderPhotos

Upload Photos

1,701,845 photos uploaded!

WunderBlogs® & News

Nearby

Snow Depth

Not available.

Coastal Water Temperatures

Lokasi Temperatur
No Stations Reporting

Earthquake Activity

City Distance Mag. Time & Date
No recent earthquake activity has been reported nearby.
Minimum magnitude displayed is 2.5.

Nearby Weather Stations

Station Location Temp Ideks Panas Titik Embun Kelembaban Angin Precip. Elev Telah Diperbaharui Type
Toyonaka 72.9 °F 77 °F 46 °F 39% Dari Barat ke Baratlaut  Pada  3.3 mph 0.00 Inch / hr 7 ft 12:57 PM JST Rapid Fire
North Kobe, Kobe 73.1 °F 76 °F 39 °F 29% Arah Barat  Pada  5.0 mph 0.00 Inch / hr 1033 ft 12:50 PM JST Normal
Kyoto, Kyoto 76.1 °F 78 °F 46 °F 34% Arah Selatan  Pada  2.5 mph 0.00 Inch / hr 105 ft 12:49 PM JST Normal

Show More Stations Show Fewer Stations

What do you think?

We're not finished. Please let us know what you like, what you don't like, and what you are still missing.